createdAt,value
2022-10-05T00:00:36.523Z,100.00
2022-10-05T00:01:39.525Z,100.00
2022-10-05T00:02:36.262Z,100.00
2022-10-05T00:03:37.216Z,100.00
2022-10-05T00:05:49.423Z,100.00
2022-10-05T00:06:57.949Z,100.00
2022-10-05T00:08:01.653Z,100.00
2022-10-05T00:09:01.301Z,100.00
2022-10-05T00:10:00.227Z,100.00
2022-10-05T00:10:57.013Z,100.00
2022-10-05T00:11:53.691Z,100.00
2022-10-05T00:12:50.436Z,100.00
2022-10-05T00:13:47.198Z,100.00
2022-10-05T00:14:46.425Z,100.00
2022-10-05T00:15:44.198Z,100.00
2022-10-05T00:16:40.996Z,100.00
2022-10-05T00:17:38.150Z,100.00
2022-10-05T00:18:34.882Z,100.00
2022-10-05T00:19:37.973Z,100.00
2022-10-05T00:20:34.649Z,100.00
2022-10-05T00:21:33.630Z,100.00
2022-10-05T00:22:33.720Z,100.00
2022-10-05T00:23:32.027Z,100.00
2022-10-05T00:24:30.014Z,100.00
2022-10-05T00:25:27.176Z,100.00
2022-10-05T00:26:26.969Z,100.00
2022-10-05T00:27:27.050Z,100.00
2022-10-05T00:28:30.613Z,100.00
2022-10-05T00:29:27.739Z,100.00
2022-10-05T00:30:30.757Z,100.00
2022-10-05T00:31:35.331Z,100.00
2022-10-05T00:32:32.092Z,100.00
2022-10-05T00:33:28.794Z,100.00
2022-10-05T00:34:25.493Z,100.00
2022-10-05T00:35:22.326Z,100.00
2022-10-05T00:36:19.410Z,100.00
2022-10-05T00:37:16.092Z,100.00
2022-10-05T00:38:12.850Z,100.00
2022-10-05T00:39:10.031Z,100.00
2022-10-05T00:40:27.011Z,100.00
2022-10-05T00:41:35.785Z,100.00
2022-10-05T00:43:10.013Z,100.00
2022-10-05T00:44:25.167Z,100.00
2022-10-05T00:45:38.058Z,100.00
2022-10-05T00:47:00.414Z,100.00
2022-10-05T00:48:29.445Z,100.00
2022-10-05T00:49:58.403Z,100.00
2022-10-05T00:51:23.488Z,100.00
2022-10-05T00:52:39.801Z,100.00
2022-10-05T00:53:51.559Z,100.00
2022-10-05T00:55:06.679Z,100.00
2022-10-05T00:56:32.989Z,100.00
2022-10-05T00:57:47.938Z,100.00
2022-10-05T00:59:32.651Z,100.00
2022-10-05T01:00:39.930Z,100.00
2022-10-05T01:02:00.856Z,100.00
2022-10-05T01:03:03.145Z,100.00
2022-10-05T01:04:11.894Z,100.00
2022-10-05T01:05:55.454Z,100.00
2022-10-05T01:07:29.806Z,100.00
2022-10-05T01:08:34.349Z,100.00
2022-10-05T01:09:52.752Z,100.00
2022-10-05T01:11:31.205Z,100.00
2022-10-05T01:12:49.822Z,100.00
2022-10-05T01:14:00.885Z,100.00
2022-10-05T01:15:20.161Z,100.00
2022-10-05T01:16:35.937Z,100.00
2022-10-05T01:17:39.963Z,100.00
2022-10-05T01:18:53.693Z,100.00
2022-10-05T01:20:15.035Z,100.00
2022-10-05T01:21:27.035Z,100.00
2022-10-05T01:22:54.226Z,100.00
2022-10-05T01:23:56.927Z,100.00
2022-10-05T01:25:15.413Z,100.00
2022-10-05T01:26:47.814Z,100.00
2022-10-05T01:27:53.823Z,100.00
2022-10-05T01:29:15.541Z,100.00
2022-10-05T01:30:16.814Z,100.00
2022-10-05T01:31:25.937Z,100.00
2022-10-05T01:32:34.414Z,100.00
2022-10-05T01:33:46.441Z,100.00
2022-10-05T01:35:13.328Z,100.00
2022-10-05T01:36:16.759Z,100.00
2022-10-05T01:37:48.978Z,100.00
2022-10-05T01:38:54.739Z,100.00
2022-10-05T01:39:57.506Z,100.00
2022-10-05T01:40:57.374Z,100.00
2022-10-05T01:42:26.135Z,100.00
2022-10-05T01:43:35.148Z,100.00
2022-10-05T01:44:44.300Z,100.00
2022-10-05T01:46:15.380Z,100.00
2022-10-05T01:47:30.895Z,100.00
2022-10-05T01:48:27.504Z,100.00
2022-10-05T01:49:50.381Z,100.00
2022-10-05T01:51:08.514Z,100.00
2022-10-05T01:52:26.618Z,100.00
2022-10-05T01:53:42.608Z,100.00
2022-10-05T01:55:02.271Z,100.00
2022-10-05T01:56:36.946Z,100.00
2022-10-05T01:58:04.576Z,100.00
2022-10-05T01:59:19.680Z,100.00
2022-10-05T02:00:20.105Z,100.00
2022-10-05T02:01:38.555Z,100.00
2022-10-05T02:02:42.288Z,100.00
2022-10-05T02:03:50.003Z,100.00
2022-10-05T02:05:09.817Z,100.00
2022-10-05T02:06:15.662Z,100.00
2022-10-05T02:07:27.446Z,100.00
2022-10-05T02:08:39.767Z,100.00
2022-10-05T02:09:48.956Z,100.00
2022-10-05T02:11:01.162Z,100.00
2022-10-05T02:12:11.778Z,100.00
2022-10-05T02:14:03.927Z,100.00
2022-10-05T02:15:13.770Z,100.00
2022-10-05T02:16:16.877Z,100.00
2022-10-05T02:17:19.389Z,100.00
2022-10-05T02:18:30.377Z,100.00
2022-10-05T02:19:34.222Z,100.00
2022-10-05T02:20:37.580Z,100.00
2022-10-05T02:21:36.498Z,100.00
2022-10-05T02:22:43.633Z,100.00
2022-10-05T02:23:43.069Z,100.00
2022-10-05T02:24:50.101Z,100.00
2022-10-05T02:25:49.823Z,100.00
2022-10-05T02:26:49.824Z,100.00
2022-10-05T02:27:58.322Z,100.00
2022-10-05T02:29:07.471Z,100.00
2022-10-05T02:30:10.499Z,100.00
2022-10-05T02:31:15.102Z,100.00
2022-10-05T02:32:21.238Z,100.00
2022-10-05T02:33:29.720Z,100.00
2022-10-05T02:34:36.518Z,100.00
2022-10-05T02:35:33.612Z,100.00
2022-10-05T02:36:36.226Z,100.00
2022-10-05T02:37:54.261Z,100.00
2022-10-05T02:39:19.198Z,100.00
2022-10-05T02:40:41.553Z,100.00
2022-10-05T02:41:44.936Z,100.00
2022-10-05T02:43:00.463Z,100.00
2022-10-05T02:44:15.376Z,100.00
2022-10-05T02:45:38.138Z,100.00
2022-10-05T02:46:59.599Z,100.00
2022-10-05T02:48:10.843Z,100.00
2022-10-05T02:49:25.172Z,100.00
2022-10-05T02:50:40.014Z,100.00
2022-10-05T02:51:48.705Z,100.00
2022-10-05T02:52:53.130Z,100.00
2022-10-05T02:54:05.038Z,100.00
2022-10-05T02:55:07.673Z,100.00
2022-10-05T02:56:36.248Z,100.00
2022-10-05T02:57:40.571Z,100.00
2022-10-05T02:58:47.710Z,100.00
2022-10-05T02:59:58.059Z,100.00
2022-10-05T03:01:14.855Z,100.00
2022-10-05T03:02:26.724Z,100.00
2022-10-05T03:03:55.748Z,100.00
2022-10-05T03:05:28.217Z,100.00
2022-10-05T03:06:38.393Z,100.00
2022-10-05T03:08:33.568Z,100.00
2022-10-05T03:09:41.254Z,100.00
2022-10-05T03:11:16.015Z,100.00
2022-10-05T03:12:26.358Z,100.00
2022-10-05T03:13:35.731Z,100.00
2022-10-05T03:14:44.504Z,100.00
2022-10-05T03:16:02.794Z,100.00
2022-10-05T03:17:11.248Z,100.00
2022-10-05T03:18:31.623Z,100.00
2022-10-05T03:20:02.029Z,100.00
2022-10-05T03:21:09.401Z,100.00
2022-10-05T03:22:16.882Z,100.00
2022-10-05T03:23:45.250Z,100.00
2022-10-05T03:25:00.297Z,100.00
2022-10-05T03:26:33.790Z,100.00
2022-10-05T03:27:50.153Z,100.00
2022-10-05T03:29:03.011Z,100.00
2022-10-05T03:30:22.780Z,100.00
2022-10-05T03:31:44.140Z,100.00
2022-10-05T03:33:12.234Z,100.00
2022-10-05T03:34:35.007Z,100.00
2022-10-05T03:36:03.582Z,100.00
2022-10-05T03:37:28.115Z,100.00
2022-10-05T03:38:55.482Z,100.00
2022-10-05T03:40:07.606Z,100.00
2022-10-05T03:41:25.795Z,100.00
2022-10-05T03:42:56.495Z,100.00
2022-10-05T03:44:14.461Z,100.00
2022-10-05T03:45:30.874Z,100.00
2022-10-05T03:46:37.227Z,100.00
2022-10-05T03:47:49.907Z,100.00
2022-10-05T03:48:55.050Z,100.00
2022-10-05T03:49:57.962Z,100.00
2022-10-05T03:51:20.932Z,100.00
2022-10-05T03:52:23.178Z,100.00
2022-10-05T03:53:25.361Z,100.00
2022-10-05T03:54:34.727Z,100.00
2022-10-05T03:55:38.918Z,100.00
2022-10-05T03:56:45.104Z,100.00
2022-10-05T03:57:45.845Z,100.00
2022-10-05T03:59:11.458Z,100.00
2022-10-05T04:00:23.244Z,100.00
2022-10-05T04:01:27.524Z,100.00
2022-10-05T04:02:36.024Z,100.00
2022-10-05T04:03:48.617Z,100.00
2022-10-05T04:05:11.166Z,100.00
2022-10-05T04:06:26.411Z,100.00
2022-10-05T04:07:33.007Z,100.00
2022-10-05T04:08:39.163Z,100.00
2022-10-05T04:09:42.848Z,100.00
2022-10-05T04:10:52.900Z,100.00
2022-10-05T04:11:58.616Z,100.00
2022-10-05T04:13:06.951Z,100.00
2022-10-05T04:14:13.025Z,100.00
2022-10-05T04:15:19.157Z,100.00
2022-10-05T04:16:20.785Z,100.00
2022-10-05T04:17:27.711Z,100.00
2022-10-05T04:18:34.167Z,100.00
2022-10-05T04:19:40.694Z,100.00
2022-10-05T04:20:52.218Z,100.00
2022-10-05T04:22:08.007Z,100.00
2022-10-05T04:23:10.709Z,100.00
2022-10-05T04:24:27.254Z,100.00
2022-10-05T04:25:35.045Z,100.00
2022-10-05T04:26:49.716Z,100.00
2022-10-05T04:28:11.434Z,100.00
2022-10-05T04:29:46.978Z,100.00
2022-10-05T04:30:49.352Z,100.00
2022-10-05T04:32:08.632Z,100.00
2022-10-05T04:33:10.741Z,100.00
2022-10-05T04:34:36.879Z,100.00
2022-10-05T04:35:43.495Z,100.00
2022-10-05T04:36:54.710Z,100.00
2022-10-05T04:37:57.335Z,100.00
2022-10-05T04:39:06.311Z,100.00
2022-10-05T04:40:02.990Z,100.00
2022-10-05T04:41:43.136Z,100.00
2022-10-05T04:42:56.306Z,100.00
2022-10-05T04:44:37.653Z,100.00
2022-10-05T04:45:46.736Z,100.00
2022-10-05T04:46:46.590Z,100.00
2022-10-05T04:47:46.081Z,100.00
2022-10-05T04:48:54.467Z,100.00
2022-10-05T04:50:12.875Z,100.00
2022-10-05T04:51:50.897Z,100.00
2022-10-05T04:52:57.481Z,100.00
2022-10-05T04:54:11.624Z,100.00
2022-10-05T04:55:14.092Z,100.00
2022-10-05T04:56:23.022Z,100.00
2022-10-05T04:57:58.823Z,100.00
2022-10-05T04:59:21.769Z,100.00
2022-10-05T05:00:24.858Z,100.00
2022-10-05T05:01:30.963Z,100.00
2022-10-05T05:03:05.966Z,100.00
2022-10-05T05:04:11.620Z,100.00
2022-10-05T05:05:32.401Z,100.00
2022-10-05T05:06:33.430Z,100.00
2022-10-05T05:07:35.834Z,100.00
2022-10-05T05:08:58.105Z,100.00
2022-10-05T05:10:35.617Z,100.00
2022-10-05T05:11:46.551Z,100.00
2022-10-05T05:13:21.157Z,100.00
2022-10-05T05:14:35.740Z,100.00
2022-10-05T05:15:50.922Z,100.00
2022-10-05T05:17:21.317Z,100.00
2022-10-05T05:18:39.743Z,100.00
2022-10-05T05:19:55.045Z,100.00
2022-10-05T05:21:08.689Z,100.00
2022-10-05T05:22:26.998Z,100.00
2022-10-05T05:23:49.069Z,100.00
2022-10-05T05:24:45.757Z,100.00
2022-10-05T05:25:56.602Z,100.00
2022-10-05T05:27:27.407Z,100.00
2022-10-05T05:28:29.939Z,100.00
2022-10-05T05:29:35.647Z,100.00
2022-10-05T05:30:35.392Z,100.00
2022-10-05T05:31:45.717Z,100.00
2022-10-05T05:33:01.502Z,100.00
2022-10-05T05:34:40.463Z,100.00
2022-10-05T05:35:42.791Z,100.00
2022-10-05T05:37:00.125Z,100.00
2022-10-05T05:38:14.028Z,100.00
2022-10-05T05:39:16.559Z,100.00
2022-10-05T05:40:25.377Z,100.00
2022-10-05T05:41:57.310Z,100.00
2022-10-05T05:43:17.863Z,100.00
2022-10-05T05:44:22.570Z,100.00
2022-10-05T05:45:36.772Z,100.00
2022-10-05T05:47:03.047Z,100.00
2022-10-05T05:48:09.003Z,100.00
2022-10-05T05:49:32.136Z,100.00
2022-10-05T05:50:43.327Z,100.00
2022-10-05T05:51:50.203Z,100.00
2022-10-05T05:53:06.243Z,100.00
2022-10-05T05:54:21.819Z,100.00
2022-10-05T05:55:33.880Z,100.00
2022-10-05T05:56:37.484Z,100.00
2022-10-05T05:57:53.194Z,100.00
2022-10-05T05:58:59.975Z,100.00
2022-10-05T06:00:20.238Z,100.00
2022-10-05T06:01:33.677Z,100.00
2022-10-05T06:02:46.754Z,100.00
2022-10-05T06:03:51.630Z,100.00
2022-10-05T06:04:56.939Z,100.00
2022-10-05T06:06:09.245Z,100.00
2022-10-05T06:07:06.799Z,100.00
2022-10-05T06:08:15.809Z,100.00
2022-10-05T06:10:01.942Z,100.00
2022-10-05T06:11:28.012Z,100.00
2022-10-05T06:12:34.757Z,100.00
2022-10-05T06:13:39.194Z,100.00
2022-10-05T06:14:43.127Z,100.00
2022-10-05T06:15:52.523Z,100.00
2022-10-05T06:16:57.808Z,100.00
2022-10-05T06:18:02.395Z,100.00
2022-10-05T06:19:15.133Z,100.00
2022-10-05T06:20:44.581Z,100.00
2022-10-05T06:22:07.642Z,100.00
2022-10-05T06:23:15.694Z,100.00
2022-10-05T06:24:31.863Z,100.00
2022-10-05T06:26:10.929Z,100.00
2022-10-05T06:27:27.591Z,100.00
2022-10-05T06:28:27.260Z,100.00
2022-10-05T06:29:58.243Z,100.00
2022-10-05T06:31:14.908Z,100.00
2022-10-05T06:32:49.867Z,100.00
2022-10-05T06:33:59.094Z,100.00
2022-10-05T06:35:31.162Z,100.00
2022-10-05T06:36:50.618Z,100.00
2022-10-05T06:38:02.405Z,100.00
2022-10-05T06:39:35.822Z,100.00
2022-10-05T06:41:06.201Z,100.00
2022-10-05T06:42:27.041Z,100.00
2022-10-05T06:44:00.726Z,100.00
2022-10-05T06:45:05.920Z,100.00
2022-10-05T06:46:16.054Z,100.00
2022-10-05T06:47:38.029Z,100.00
2022-10-05T06:49:02.737Z,100.00
2022-10-05T06:50:17.587Z,100.00
2022-10-05T06:51:31.811Z,100.00
2022-10-05T06:52:58.035Z,100.00
2022-10-05T06:54:21.280Z,100.00
2022-10-05T06:55:21.014Z,100.00
2022-10-05T06:56:22.979Z,100.00
2022-10-05T06:57:49.070Z,100.00
2022-10-05T06:58:58.476Z,100.00
2022-10-05T07:00:05.263Z,100.00
2022-10-05T07:01:22.251Z,100.00
2022-10-05T07:02:27.663Z,100.00
2022-10-05T07:03:49.515Z,100.00
2022-10-05T07:04:55.075Z,100.00
2022-10-05T07:06:11.933Z,100.00
2022-10-05T07:07:26.523Z,100.00
2022-10-05T07:08:38.184Z,100.00
2022-10-05T07:09:43.614Z,100.00
2022-10-05T07:10:58.372Z,100.00
2022-10-05T07:12:13.920Z,100.00
2022-10-05T07:13:35.229Z,100.00
2022-10-05T07:14:51.606Z,100.00
2022-10-05T07:15:57.278Z,100.00
2022-10-05T07:16:59.612Z,100.00
2022-10-05T07:18:38.240Z,100.00
2022-10-05T07:19:41.070Z,100.00
2022-10-05T07:20:48.266Z,100.00
2022-10-05T07:22:10.416Z,100.00
2022-10-05T07:23:31.091Z,100.00
2022-10-05T07:24:29.155Z,100.00
2022-10-05T07:26:04.077Z,100.00
2022-10-05T07:27:00.718Z,100.00
2022-10-05T07:28:08.423Z,100.00
2022-10-05T07:29:08.195Z,100.00
2022-10-05T07:30:22.880Z,100.00
2022-10-05T07:32:12.005Z,100.00
2022-10-05T07:33:20.274Z,100.00
2022-10-05T07:34:20.026Z,100.00
2022-10-05T07:35:38.184Z,100.00
2022-10-05T07:37:11.715Z,100.00
2022-10-05T07:38:35.121Z,100.00
2022-10-05T07:40:01.149Z,100.00
2022-10-05T07:41:47.747Z,100.00
2022-10-05T07:43:11.113Z,100.00
2022-10-05T07:44:19.271Z,100.00
2022-10-05T07:45:16.087Z,100.00
2022-10-05T07:46:37.179Z,100.00
2022-10-05T07:47:41.509Z,100.00
2022-10-05T07:49:14.762Z,100.00
2022-10-05T07:50:35.317Z,100.00
2022-10-05T07:52:03.025Z,100.00
2022-10-05T07:53:24.160Z,100.00
2022-10-05T07:54:27.458Z,100.00
2022-10-05T07:55:35.576Z,100.00
2022-10-05T07:56:41.495Z,100.00
2022-10-05T07:58:11.083Z,100.00
2022-10-05T07:59:22.963Z,100.00
2022-10-05T08:00:23.857Z,100.00
2022-10-05T08:01:31.303Z,100.00
2022-10-05T08:02:40.314Z,100.00
2022-10-05T08:03:49.688Z,100.00
2022-10-05T08:05:04.058Z,100.00
2022-10-05T08:06:05.614Z,100.00
2022-10-05T08:07:12.770Z,100.00
2022-10-05T08:08:31.353Z,100.00
2022-10-05T08:09:31.347Z,100.00
2022-10-05T08:11:05.155Z,100.00
2022-10-05T08:12:28.022Z,100.00
2022-10-05T08:13:47.242Z,100.00
2022-10-05T08:14:56.063Z,100.00
2022-10-05T08:15:59.817Z,100.00
2022-10-05T08:17:10.760Z,100.00
2022-10-05T08:18:10.201Z,100.00
2022-10-05T08:19:29.549Z,100.00
2022-10-05T08:20:31.891Z,100.00
2022-10-05T08:21:45.930Z,100.00
2022-10-05T08:22:55.026Z,100.00
2022-10-05T08:24:23.972Z,100.00
2022-10-05T08:25:28.507Z,100.00
2022-10-05T08:26:46.655Z,100.00
2022-10-05T08:27:54.586Z,100.00
2022-10-05T08:29:03.322Z,100.00
2022-10-05T08:30:05.423Z,100.00
2022-10-05T08:31:17.348Z,100.00
2022-10-05T08:32:43.806Z,100.00
2022-10-05T08:33:55.670Z,100.00
2022-10-05T08:35:16.092Z,100.00
2022-10-05T08:36:19.937Z,100.00
2022-10-05T08:37:28.403Z,100.00
2022-10-05T08:38:35.051Z,100.00
2022-10-05T08:39:49.194Z,100.00
2022-10-05T08:41:07.285Z,100.00
2022-10-05T08:42:58.820Z,100.00
2022-10-05T08:44:20.830Z,100.00
2022-10-05T08:45:42.264Z,100.00
2022-10-05T08:46:38.996Z,100.00
2022-10-05T08:48:04.844Z,100.00
2022-10-05T08:49:40.133Z,100.00
2022-10-05T08:50:58.401Z,100.00
2022-10-05T08:52:22.284Z,100.00
2022-10-05T08:53:43.168Z,100.00
2022-10-05T08:55:01.230Z,100.00
2022-10-05T08:56:08.629Z,100.00
2022-10-05T08:57:40.097Z,100.00
2022-10-05T08:59:06.633Z,100.00
2022-10-05T09:00:20.167Z,100.00
2022-10-05T09:01:32.539Z,100.00
2022-10-05T09:02:45.257Z,100.00
2022-10-05T09:04:04.205Z,100.00
2022-10-05T09:05:22.136Z,100.00
2022-10-05T09:06:56.171Z,100.00
2022-10-05T09:08:31.080Z,100.00
2022-10-05T09:09:58.288Z,100.00
2022-10-05T09:11:03.842Z,98.93
2022-10-05T09:12:04.291Z,95.33
2022-10-05T09:13:33.886Z,93.85
2022-10-05T09:14:39.064Z,94.12
2022-10-05T09:16:13.663Z,94.23
2022-10-05T09:17:28.673Z,94.30
2022-10-05T09:18:53.470Z,94.10
2022-10-05T09:20:17.331Z,95.55
2022-10-05T09:21:40.421Z,93.48
2022-10-05T09:22:55.211Z,97.67
2022-10-05T09:24:14.616Z,98.22
2022-10-05T09:25:20.546Z,95.48
2022-10-05T09:26:42.373Z,93.88
2022-10-05T09:27:49.659Z,92.73
2022-10-05T09:29:07.458Z,91.40
2022-10-05T09:30:20.017Z,92.10
2022-10-05T09:31:53.632Z,90.68
2022-10-05T09:33:08.952Z,91.63
2022-10-05T09:34:49.161Z,91.22
2022-10-05T09:36:30.283Z,93.07
2022-10-05T09:38:03.246Z,89.18
2022-10-05T09:39:47.866Z,88.80
2022-10-05T09:41:14.913Z,88.52
2022-10-05T09:42:35.919Z,89.99
2022-10-05T09:44:19.451Z,85.47
2022-10-05T09:45:38.646Z,83.18
2022-10-05T09:47:16.744Z,81.14
2022-10-05T09:48:51.584Z,80.29
2022-10-05T09:49:57.049Z,79.31
2022-10-05T09:51:02.849Z,76.90
2022-10-05T09:52:29.130Z,74.35
2022-10-05T09:53:44.818Z,72.50
2022-10-05T09:55:40.196Z,74.41
2022-10-05T09:57:21.551Z,74.35
2022-10-05T09:58:36.985Z,74.88
2022-10-05T10:00:00.976Z,74.34
2022-10-05T10:01:29.146Z,75.00
2022-10-05T10:02:41.791Z,75.10
2022-10-05T10:04:09.865Z,73.85
2022-10-05T10:05:16.530Z,76.44
2022-10-05T10:06:20.931Z,74.71
2022-10-05T10:07:35.515Z,76.64
2022-10-05T10:08:44.486Z,76.03
2022-10-05T10:09:56.202Z,74.08
2022-10-05T10:11:12.090Z,73.19
2022-10-05T10:12:36.255Z,70.83
2022-10-05T10:14:06.911Z,71.56
2022-10-05T10:15:23.890Z,71.77
2022-10-05T10:16:53.638Z,70.54
2022-10-05T10:18:11.785Z,70.48
2022-10-05T10:19:46.054Z,72.01
2022-10-05T10:21:00.941Z,71.63
2022-10-05T10:22:00.403Z,71.32
2022-10-05T10:23:32.274Z,71.08
2022-10-05T10:25:05.867Z,70.91
2022-10-05T10:26:26.674Z,69.87
2022-10-05T10:27:38.105Z,70.15
2022-10-05T10:28:40.701Z,70.14
2022-10-05T10:29:46.186Z,66.69
2022-10-05T10:30:56.517Z,66.42
2022-10-05T10:32:18.679Z,70.62
2022-10-05T10:33:46.367Z,69.27
2022-10-05T10:35:22.170Z,66.31
2022-10-05T10:36:50.498Z,65.88
2022-10-05T10:38:29.237Z,66.78
2022-10-05T10:39:45.207Z,66.30
2022-10-05T10:40:42.419Z,65.99
2022-10-05T10:42:10.269Z,65.00
2022-10-05T10:43:19.204Z,64.84
2022-10-05T10:44:43.719Z,64.28
2022-10-05T10:46:39.586Z,65.74
2022-10-05T10:47:48.674Z,65.81
2022-10-05T10:49:15.844Z,64.78
2022-10-05T10:50:43.595Z,64.50
2022-10-05T10:52:03.710Z,63.79
2022-10-05T10:53:19.119Z,64.10
2022-10-05T10:54:43.026Z,64.12
2022-10-05T10:55:54.801Z,63.32
2022-10-05T10:56:58.491Z,64.75
2022-10-05T10:58:16.113Z,62.73
2022-10-05T10:59:33.179Z,63.31
2022-10-05T11:01:00.814Z,63.08
2022-10-05T11:02:00.251Z,61.63
2022-10-05T11:03:17.698Z,61.35
2022-10-05T11:04:29.329Z,61.17
2022-10-05T11:05:54.080Z,62.87
2022-10-05T11:07:09.518Z,61.86
2022-10-05T11:08:18.445Z,61.97
2022-10-05T11:09:50.717Z,63.24
2022-10-05T11:11:19.349Z,64.15
2022-10-05T11:12:34.943Z,61.47
2022-10-05T11:14:08.971Z,61.18
2022-10-05T11:15:25.834Z,61.67
2022-10-05T11:17:11.154Z,63.44
2022-10-05T11:18:16.962Z,63.73
2022-10-05T11:20:02.563Z,64.23
2022-10-05T11:21:24.273Z,61.18
2022-10-05T11:22:42.186Z,60.95
2022-10-05T11:24:25.441Z,62.03
2022-10-05T11:25:35.642Z,62.21
2022-10-05T11:26:42.383Z,62.80
2022-10-05T11:27:54.166Z,62.45
2022-10-05T11:28:53.967Z,62.62
2022-10-05T11:30:02.558Z,64.58
2022-10-05T11:31:40.313Z,64.69
2022-10-05T11:33:11.167Z,59.72
2022-10-05T11:34:40.843Z,61.15
2022-10-05T11:36:28.585Z,61.06
2022-10-05T11:37:31.916Z,57.36
2022-10-05T11:38:46.341Z,57.35
2022-10-05T11:40:27.694Z,59.58
2022-10-05T11:41:27.753Z,58.19
2022-10-05T11:42:56.253Z,58.63
2022-10-05T11:44:26.010Z,57.49
2022-10-05T11:45:38.326Z,58.21
2022-10-05T11:46:43.030Z,59.01
2022-10-05T11:48:16.330Z,57.37
2022-10-05T11:49:33.849Z,58.36
2022-10-05T11:50:51.854Z,59.22
2022-10-05T11:52:16.887Z,59.98
2022-10-05T11:53:32.308Z,59.25
2022-10-05T11:55:05.685Z,60.26
2022-10-05T11:56:31.591Z,58.50
2022-10-05T11:57:28.821Z,57.50
2022-10-05T11:59:00.728Z,58.10
2022-10-05T12:00:14.585Z,56.87
2022-10-05T12:01:34.632Z,57.10
2022-10-05T12:02:53.675Z,57.51
2022-10-05T12:03:56.359Z,57.75
2022-10-05T12:05:11.269Z,58.17
2022-10-05T12:06:31.393Z,58.03
2022-10-05T12:07:47.147Z,60.03
2022-10-05T12:09:04.993Z,58.57
2022-10-05T12:10:32.831Z,56.74
2022-10-05T12:11:42.781Z,57.73
2022-10-05T12:12:45.345Z,57.63
2022-10-05T12:14:04.930Z,57.70
2022-10-05T12:15:40.823Z,57.75
2022-10-05T12:17:13.698Z,57.47
2022-10-05T12:18:39.359Z,58.99
2022-10-05T12:19:44.153Z,58.66
2022-10-05T12:20:52.341Z,59.00
2022-10-05T12:22:00.073Z,57.39
2022-10-05T12:23:14.574Z,56.49
2022-10-05T12:24:27.039Z,57.61
2022-10-05T12:25:33.679Z,58.64
2022-10-05T12:26:41.724Z,57.74
2022-10-05T12:27:46.184Z,57.05
2022-10-05T12:28:53.316Z,57.45
2022-10-05T12:30:01.299Z,58.50
2022-10-05T12:31:30.310Z,58.12
2022-10-05T12:33:04.466Z,58.08
2022-10-05T12:34:27.176Z,58.93
2022-10-05T12:35:49.227Z,58.15
2022-10-05T12:37:05.205Z,56.81
2022-10-05T12:38:14.004Z,55.29
2022-10-05T12:39:25.742Z,55.09
2022-10-05T12:40:34.215Z,54.08
2022-10-05T12:41:45.770Z,54.12
2022-10-05T12:42:58.882Z,54.42
2022-10-05T12:44:13.320Z,54.60
2022-10-05T12:45:34.298Z,54.72
2022-10-05T12:46:52.506Z,55.00
2022-10-05T12:48:04.480Z,55.87
2022-10-05T12:49:29.128Z,55.05
2022-10-05T12:50:40.829Z,55.18
2022-10-05T12:51:46.589Z,53.95
2022-10-05T12:52:43.392Z,53.76
2022-10-05T12:53:51.910Z,53.81
2022-10-05T12:55:15.059Z,54.24
2022-10-05T12:56:40.394Z,53.62
2022-10-05T12:58:09.233Z,53.62
2022-10-05T12:59:38.420Z,53.11
2022-10-05T13:00:48.737Z,52.95
2022-10-05T13:02:03.902Z,53.45
2022-10-05T13:03:13.731Z,53.85
2022-10-05T13:04:35.059Z,53.57
2022-10-05T13:05:37.957Z,54.59
2022-10-05T13:06:48.676Z,54.87
2022-10-05T13:08:12.975Z,56.19
2022-10-05T13:09:26.733Z,56.60
2022-10-05T13:10:33.456Z,56.45
2022-10-05T13:11:42.592Z,54.04
2022-10-05T13:13:02.427Z,52.33
2022-10-05T13:14:17.199Z,54.22
2022-10-05T13:15:29.608Z,55.79
2022-10-05T13:16:29.143Z,55.05
2022-10-05T13:17:49.997Z,55.38
2022-10-05T13:19:05.367Z,55.27
2022-10-05T13:20:21.543Z,55.52
2022-10-05T13:21:26.837Z,55.70
2022-10-05T13:22:48.452Z,55.64
2022-10-05T13:24:13.928Z,54.33
2022-10-05T13:25:13.623Z,53.89
2022-10-05T13:26:21.886Z,54.74
2022-10-05T13:27:27.882Z,54.86
2022-10-05T13:28:35.419Z,54.83
2022-10-05T13:29:54.403Z,55.08
2022-10-05T13:31:01.321Z,55.38
2022-10-05T13:32:06.269Z,54.95
2022-10-05T13:33:05.783Z,55.43
2022-10-05T13:34:28.144Z,55.71
2022-10-05T13:35:52.582Z,55.52
2022-10-05T13:37:13.176Z,55.02
2022-10-05T13:38:22.143Z,53.49
2022-10-05T13:39:31.359Z,55.20
2022-10-05T13:40:47.492Z,55.80
2022-10-05T13:42:01.949Z,55.43
2022-10-05T13:43:07.715Z,54.22
2022-10-05T13:44:31.968Z,55.72
2022-10-05T13:45:55.798Z,55.61
2022-10-05T13:46:53.597Z,55.43
2022-10-05T13:48:19.043Z,54.32
2022-10-05T13:49:32.679Z,54.79
2022-10-05T13:50:34.190Z,55.22
2022-10-05T13:51:41.710Z,53.99
2022-10-05T13:52:53.843Z,53.49
2022-10-05T13:54:07.668Z,53.49
2022-10-05T13:55:29.403Z,53.33
2022-10-05T13:56:33.220Z,52.94
2022-10-05T13:58:02.505Z,53.01
2022-10-05T13:59:11.806Z,52.73
2022-10-05T14:00:26.599Z,51.32
2022-10-05T14:01:47.062Z,50.46
2022-10-05T14:02:47.715Z,51.40
2022-10-05T14:04:16.506Z,51.14
2022-10-05T14:05:27.057Z,51.37
2022-10-05T14:06:30.041Z,51.17
2022-10-05T14:07:34.967Z,51.51
2022-10-05T14:08:48.493Z,51.70
2022-10-05T14:09:50.020Z,52.38
2022-10-05T14:10:47.878Z,52.86
2022-10-05T14:12:18.826Z,53.20
2022-10-05T14:13:40.976Z,54.00
2022-10-05T14:14:53.759Z,54.91
2022-10-05T14:16:16.733Z,56.67
2022-10-05T14:17:17.343Z,56.66
2022-10-05T14:18:31.380Z,56.17
2022-10-05T14:19:50.982Z,55.81
2022-10-05T14:21:07.706Z,54.85
2022-10-05T14:22:22.388Z,54.09
2022-10-05T14:23:26.945Z,54.96
2022-10-05T14:24:44.895Z,56.20
2022-10-05T14:25:54.122Z,56.09
2022-10-05T14:26:54.580Z,56.74
2022-10-05T14:28:24.188Z,56.82
2022-10-05T14:29:54.399Z,56.21
2022-10-05T14:31:17.173Z,55.35
2022-10-05T14:32:23.535Z,55.60
2022-10-05T14:33:21.860Z,53.98
2022-10-05T14:34:34.873Z,54.06
2022-10-05T14:35:46.175Z,54.26
2022-10-05T14:36:44.056Z,53.82
2022-10-05T14:38:00.941Z,53.54
2022-10-05T14:39:02.005Z,54.00
2022-10-05T14:40:20.933Z,54.69
2022-10-05T14:41:25.426Z,55.37
2022-10-05T14:42:29.073Z,56.61
2022-10-05T14:43:25.776Z,55.96
2022-10-05T14:44:29.751Z,54.96
2022-10-05T14:45:33.370Z,54.64
2022-10-05T14:46:34.962Z,53.55
2022-10-05T14:47:32.284Z,53.72
2022-10-05T14:48:41.258Z,53.65
2022-10-05T14:50:10.717Z,54.07
2022-10-05T14:51:28.321Z,55.28
2022-10-05T14:52:32.640Z,55.73
2022-10-05T14:53:38.628Z,56.12
2022-10-05T14:54:57.009Z,56.44
2022-10-05T14:56:12.396Z,55.17
2022-10-05T14:57:12.070Z,54.21
2022-10-05T14:58:46.466Z,54.22
2022-10-05T15:00:11.594Z,55.49
2022-10-05T15:01:17.457Z,56.12
2022-10-05T15:02:37.498Z,56.43
2022-10-05T15:03:37.219Z,56.08
2022-10-05T15:04:44.200Z,56.12
2022-10-05T15:05:54.439Z,56.61
2022-10-05T15:07:11.057Z,56.34
2022-10-05T15:08:26.385Z,56.28
2022-10-05T15:09:51.051Z,55.32
2022-10-05T15:11:00.702Z,53.39
2022-10-05T15:12:02.295Z,54.61
2022-10-05T15:13:34.054Z,54.77
2022-10-05T15:14:44.512Z,53.98
2022-10-05T15:15:53.972Z,54.87
2022-10-05T15:16:54.449Z,55.19
2022-10-05T15:18:32.146Z,55.23
2022-10-05T15:20:09.561Z,54.15
2022-10-05T15:21:22.568Z,54.71
2022-10-05T15:22:31.789Z,54.78
2022-10-05T15:24:00.837Z,54.99
2022-10-05T15:25:15.487Z,56.08
2022-10-05T15:26:27.069Z,55.39
2022-10-05T15:27:33.116Z,55.59
2022-10-05T15:28:54.414Z,56.21
2022-10-05T15:30:09.770Z,56.58
2022-10-05T15:31:43.435Z,56.88
2022-10-05T15:32:46.418Z,57.42
2022-10-05T15:34:08.034Z,57.89
2022-10-05T15:35:44.239Z,58.17
2022-10-05T15:36:57.258Z,58.98
2022-10-05T15:37:56.480Z,58.83
2022-10-05T15:39:32.753Z,58.71
2022-10-05T15:40:59.611Z,59.37
2022-10-05T15:42:02.070Z,59.43
2022-10-05T15:43:08.618Z,59.44
2022-10-05T15:44:27.119Z,59.61
2022-10-05T15:45:37.727Z,60.08
2022-10-05T15:46:44.545Z,61.03
2022-10-05T15:47:59.981Z,61.33